sensor_id;sensor_type;location;lat;lon;timestamp;P1;durP1;ratioP1;P2;durP2;ratioP2
19291;SDS011;9779;51.756;7.450;2023-02-10T00:02:21;37.43;;;22.30;;
19291;SDS011;9779;51.756;7.450;2023-02-10T00:04:47;41.50;;;21.33;;
19291;SDS011;9779;51.756;7.450;2023-02-10T00:07:13;32.60;;;19.23;;
19291;SDS011;9779;51.756;7.450;2023-02-10T00:09:38;41.07;;;20.30;;
19291;SDS011;9779;51.756;7.450;2023-02-10T00:12:04;33.77;;;20.93;;
19291;SDS011;9779;51.756;7.450;2023-02-10T00:14:32;34.10;;;20.37;;
19291;SDS011;9779;51.756;7.450;2023-02-10T00:16:58;35.17;;;21.77;;
19291;SDS011;9779;51.756;7.450;2023-02-10T00:19:25;37.33;;;21.07;;
19291;SDS011;9779;51.756;7.450;2023-02-10T00:21:52;37.07;;;20.90;;
19291;SDS011;9779;51.756;7.450;2023-02-10T00:24:17;34.23;;;20.73;;
19291;SDS011;9779;51.756;7.450;2023-02-10T00:26:43;39.67;;;21.73;;
19291;SDS011;9779;51.756;7.450;2023-02-10T00:29:09;33.17;;;20.20;;
19291;SDS011;9779;51.756;7.450;2023-02-10T00:31:34;37.60;;;20.57;;
19291;SDS011;9779;51.756;7.450;2023-02-10T00:34:00;36.60;;;20.73;;
19291;SDS011;9779;51.756;7.450;2023-02-10T00:36:26;40.43;;;20.53;;
19291;SDS011;9779;51.756;7.450;2023-02-10T00:38:51;35.30;;;20.57;;
19291;SDS011;9779;51.756;7.450;2023-02-10T00:41:18;36.33;;;20.53;;
19291;SDS011;9779;51.756;7.450;2023-02-10T00:43:45;39.37;;;20.57;;
19291;SDS011;9779;51.756;7.450;2023-02-10T00:46:11;37.77;;;19.53;;
19291;SDS011;9779;51.756;7.450;2023-02-10T00:48:38;31.30;;;19.70;;
19291;SDS011;9779;51.756;7.450;2023-02-10T00:51:04;33.30;;;19.30;;
19291;SDS011;9779;51.756;7.450;2023-02-10T00:53:30;41.30;;;19.67;;
19291;SDS011;9779;51.756;7.450;2023-02-10T00:55:56;30.50;;;18.57;;
19291;SDS011;9779;51.756;7.450;2023-02-10T00:58:22;38.33;;;20.00;;
19291;SDS011;9779;51.756;7.450;2023-02-10T01:00:48;31.57;;;19.40;;
19291;SDS011;9779;51.756;7.450;2023-02-10T01:03:13;34.97;;;19.90;;
19291;SDS011;9779;51.756;7.450;2023-02-10T01:05:39;41.17;;;20.97;;
19291;SDS011;9779;51.756;7.450;2023-02-10T01:08:05;34.80;;;19.47;;
19291;SDS011;9779;51.756;7.450;2023-02-10T01:10:34;38.00;;;20.70;;
19291;SDS011;9779;51.756;7.450;2023-02-10T01:13:00;42.73;;;21.47;;
19291;SDS011;9779;51.756;7.450;2023-02-10T01:15:27;30.10;;;19.27;;
19291;SDS011;9779;51.756;7.450;2023-02-10T01:17:52;37.33;;;20.00;;
19291;SDS011;9779;51.756;7.450;2023-02-10T01:20:18;31.13;;;18.60;;
19291;SDS011;9779;51.756;7.450;2023-02-10T01:22:44;36.97;;;20.80;;
19291;SDS011;9779;51.756;7.450;2023-02-10T01:25:09;37.07;;;20.70;;
19291;SDS011;9779;51.756;7.450;2023-02-10T01:27:35;36.77;;;19.47;;
19291;SDS011;9779;51.756;7.450;2023-02-10T01:30:00;32.93;;;18.93;;
19291;SDS011;9779;51.756;7.450;2023-02-10T01:32:27;33.50;;;19.87;;
19291;SDS011;9779;51.756;7.450;2023-02-10T01:34:53;34.93;;;19.83;;
19291;SDS011;9779;51.756;7.450;2023-02-10T01:37:18;39.80;;;21.00;;
19291;SDS011;9779;51.756;7.450;2023-02-10T01:39:44;42.33;;;21.53;;
19291;SDS011;9779;51.756;7.450;2023-02-10T01:42:13;34.80;;;19.73;;
19291;SDS011;9779;51.756;7.450;2023-02-10T01:47:05;37.07;;;20.90;;
19291;SDS011;9779;51.756;7.450;2023-02-10T01:49:39;35.13;;;20.37;;
19291;SDS011;9779;51.756;7.450;2023-02-10T01:54:37;33.10;;;20.13;;
19291;SDS011;9779;51.756;7.450;2023-02-10T01:57:06;36.23;;;20.57;;
19291;SDS011;9779;51.756;7.450;2023-02-10T01:59:33;30.73;;;20.03;;
19291;SDS011;9779;51.756;7.450;2023-02-10T02:02:01;32.93;;;20.17;;
19291;SDS011;9779;51.756;7.450;2023-02-10T02:04:42;39.13;;;20.17;;
19291;SDS011;9779;51.756;7.450;2023-02-10T02:07:18;34.07;;;19.23;;
19291;SDS011;9779;51.756;7.450;2023-02-10T02:09:49;28.47;;;18.90;;
19291;SDS011;9779;51.756;7.450;2023-02-10T02:12:22;27.60;;;17.93;;
19291;SDS011;9779;51.756;7.450;2023-02-10T02:17:50;32.07;;;18.37;;
19291;SDS011;9779;51.756;7.450;2023-02-10T02:26:41;28.60;;;19.47;;
19291;SDS011;9779;51.756;7.450;2023-02-10T02:32:19;27.87;;;19.03;;
19291;SDS011;9779;51.756;7.450;2023-02-10T02:37:36;34.43;;;21.10;;
19291;SDS011;9779;51.756;7.450;2023-02-10T02:40:07;32.67;;;20.77;;
19291;SDS011;9779;51.756;7.450;2023-02-10T02:42:33;35.87;;;20.53;;
19291;SDS011;9779;51.756;7.450;2023-02-10T02:56:23;32.10;;;20.13;;
19291;SDS011;9779;51.756;7.450;2023-02-10T02:59:07;39.50;;;20.80;;
19291;SDS011;9779;51.756;7.450;2023-02-10T03:01:58;38.17;;;21.37;;
19291;SDS011;9779;51.756;7.450;2023-02-10T03:04:26;34.77;;;21.40;;
19291;SDS011;9779;51.756;7.450;2023-02-10T03:06:58;44.70;;;24.43;;
19291;SDS011;9779;51.756;7.450;2023-02-10T03:09:24;45.67;;;23.07;;
19291;SDS011;9779;51.756;7.450;2023-02-10T03:11:51;45.30;;;23.90;;
19291;SDS011;9779;51.756;7.450;2023-02-10T03:14:16;41.73;;;22.67;;
19291;SDS011;9779;51.756;7.450;2023-02-10T03:16:42;38.80;;;22.93;;
19291;SDS011;9779;51.756;7.450;2023-02-10T03:19:07;45.30;;;23.70;;
19291;SDS011;9779;51.756;7.450;2023-02-10T03:21:33;47.77;;;24.40;;
19291;SDS011;9779;51.756;7.450;2023-02-10T03:23:59;44.47;;;24.13;;
19291;SDS011;9779;51.756;7.450;2023-02-10T03:26:26;41.07;;;23.50;;
19291;SDS011;9779;51.756;7.450;2023-02-10T03:28:54;42.33;;;22.40;;
19291;SDS011;9779;51.756;7.450;2023-02-10T03:31:20;44.17;;;23.77;;
19291;SDS011;9779;51.756;7.450;2023-02-10T03:33:46;44.00;;;24.70;;
19291;SDS011;9779;51.756;7.450;2023-02-10T03:36:11;39.70;;;24.43;;
19291;SDS011;9779;51.756;7.450;2023-02-10T03:38:37;44.33;;;23.23;;
19291;SDS011;9779;51.756;7.450;2023-02-10T03:41:03;38.17;;;24.07;;
19291;SDS011;9779;51.756;7.450;2023-02-10T03:43:29;43.53;;;24.73;;
19291;SDS011;9779;51.756;7.450;2023-02-10T03:45:54;42.90;;;25.10;;
19291;SDS011;9779;51.756;7.450;2023-02-10T03:48:20;40.17;;;22.70;;
19291;SDS011;9779;51.756;7.450;2023-02-10T03:50:47;48.67;;;23.83;;
19291;SDS011;9779;51.756;7.450;2023-02-10T03:53:13;48.13;;;25.20;;
19291;SDS011;9779;51.756;7.450;2023-02-10T03:55:39;40.53;;;23.40;;
19291;SDS011;9779;51.756;7.450;2023-02-10T03:58:04;46.57;;;23.67;;
19291;SDS011;9779;51.756;7.450;2023-02-10T04:00:30;44.03;;;24.13;;
19291;SDS011;9779;51.756;7.450;2023-02-10T04:02:56;44.40;;;23.13;;
19291;SDS011;9779;51.756;7.450;2023-02-10T04:05:22;38.77;;;24.07;;
19291;SDS011;9779;51.756;7.450;2023-02-10T04:07:47;40.20;;;24.53;;
19291;SDS011;9779;51.756;7.450;2023-02-10T04:10:13;42.43;;;23.90;;
19291;SDS011;9779;51.756;7.450;2023-02-10T04:12:39;41.17;;;24.70;;
19291;SDS011;9779;51.756;7.450;2023-02-10T04:15:05;40.33;;;23.93;;
19291;SDS011;9779;51.756;7.450;2023-02-10T04:17:31;40.43;;;23.40;;
19291;SDS011;9779;51.756;7.450;2023-02-10T04:19:57;43.20;;;24.10;;
19291;SDS011;9779;51.756;7.450;2023-02-10T04:22:22;50.27;;;23.53;;
19291;SDS011;9779;51.756;7.450;2023-02-10T04:24:48;48.53;;;24.10;;
19291;SDS011;9779;51.756;7.450;2023-02-10T04:27:13;37.30;;;22.77;;
19291;SDS011;9779;51.756;7.450;2023-02-10T04:29:39;40.03;;;23.90;;
19291;SDS011;9779;51.756;7.450;2023-02-10T04:32:06;45.50;;;24.07;;
19291;SDS011;9779;51.756;7.450;2023-02-10T04:34:32;49.83;;;23.80;;
19291;SDS011;9779;51.756;7.450;2023-02-10T04:36:58;48.53;;;23.77;;
19291;SDS011;9779;51.756;7.450;2023-02-10T04:39:23;43.37;;;23.67;;
19291;SDS011;9779;51.756;7.450;2023-02-10T04:41:49;37.33;;;23.03;;
19291;SDS011;9779;51.756;7.450;2023-02-10T04:44:14;45.40;;;23.87;;
19291;SDS011;9779;51.756;7.450;2023-02-10T04:46:40;43.10;;;25.07;;
19291;SDS011;9779;51.756;7.450;2023-02-10T04:49:05;46.50;;;24.93;;
19291;SDS011;9779;51.756;7.450;2023-02-10T04:51:31;38.40;;;23.00;;
19291;SDS011;9779;51.756;7.450;2023-02-10T04:53:56;37.93;;;22.23;;
19291;SDS011;9779;51.756;7.450;2023-02-10T04:56:22;45.63;;;24.00;;
19291;SDS011;9779;51.756;7.450;2023-02-10T04:58:47;44.87;;;22.43;;
19291;SDS011;9779;51.756;7.450;2023-02-10T05:01:13;42.30;;;24.63;;
19291;SDS011;9779;51.756;7.450;2023-02-10T05:03:39;42.90;;;24.30;;
19291;SDS011;9779;51.756;7.450;2023-02-10T05:06:05;45.47;;;23.47;;
19291;SDS011;9779;51.756;7.450;2023-02-10T05:08:36;41.40;;;23.03;;
19291;SDS011;9779;51.756;7.450;2023-02-10T05:11:07;42.50;;;23.03;;
19291;SDS011;9779;51.756;7.450;2023-02-10T05:13:33;45.93;;;24.77;;
19291;SDS011;9779;51.756;7.450;2023-02-10T05:15:59;44.90;;;23.90;;
19291;SDS011;9779;51.756;7.450;2023-02-10T05:18:27;41.43;;;23.37;;
19291;SDS011;9779;51.756;7.450;2023-02-10T05:20:52;43.03;;;23.80;;
19291;SDS011;9779;51.756;7.450;2023-02-10T05:23:18;41.93;;;23.63;;
19291;SDS011;9779;51.756;7.450;2023-02-10T05:25:43;43.87;;;25.90;;
19291;SDS011;9779;51.756;7.450;2023-02-10T05:28:09;48.10;;;24.90;;
19291;SDS011;9779;51.756;7.450;2023-02-10T05:30:34;48.10;;;24.87;;
19291;SDS011;9779;51.756;7.450;2023-02-10T05:33:00;50.67;;;24.47;;
19291;SDS011;9779;51.756;7.450;2023-02-10T05:35:25;41.17;;;24.03;;
19291;SDS011;9779;51.756;7.450;2023-02-10T05:37:51;47.90;;;24.70;;
19291;SDS011;9779;51.756;7.450;2023-02-10T05:40:17;45.00;;;25.10;;
19291;SDS011;9779;51.756;7.450;2023-02-10T05:42:43;42.57;;;23.63;;
19291;SDS011;9779;51.756;7.450;2023-02-10T05:45:08;45.43;;;24.80;;
19291;SDS011;9779;51.756;7.450;2023-02-10T05:47:34;39.43;;;24.50;;
19291;SDS011;9779;51.756;7.450;2023-02-10T05:49:59;42.50;;;25.53;;
19291;SDS011;9779;51.756;7.450;2023-02-10T05:52:25;51.83;;;25.80;;
19291;SDS011;9779;51.756;7.450;2023-02-10T05:54:50;48.47;;;24.50;;
19291;SDS011;9779;51.756;7.450;2023-02-10T05:57:16;49.27;;;26.50;;
19291;SDS011;9779;51.756;7.450;2023-02-10T05:59:41;49.87;;;25.97;;
19291;SDS011;9779;51.756;7.450;2023-02-10T06:02:07;49.53;;;26.73;;
19291;SDS011;9779;51.756;7.450;2023-02-10T06:04:33;45.63;;;25.80;;
19291;SDS011;9779;51.756;7.450;2023-02-10T06:06:58;41.07;;;25.80;;
19291;SDS011;9779;51.756;7.450;2023-02-10T06:09:24;47.37;;;26.83;;
19291;SDS011;9779;51.756;7.450;2023-02-10T06:11:52;50.67;;;26.37;;
19291;SDS011;9779;51.756;7.450;2023-02-10T06:14:18;45.73;;;25.70;;
19291;SDS011;9779;51.756;7.450;2023-02-10T06:16:44;48.70;;;26.90;;
19291;SDS011;9779;51.756;7.450;2023-02-10T06:19:10;49.60;;;27.10;;
19291;SDS011;9779;51.756;7.450;2023-02-10T06:21:35;51.27;;;25.33;;
19291;SDS011;9779;51.756;7.450;2023-02-10T06:24:01;51.23;;;27.53;;
19291;SDS011;9779;51.756;7.450;2023-02-10T06:26:26;50.30;;;27.27;;
19291;SDS011;9779;51.756;7.450;2023-02-10T06:28:53;47.57;;;27.17;;
19291;SDS011;9779;51.756;7.450;2023-02-10T06:31:19;60.80;;;28.07;;
19291;SDS011;9779;51.756;7.450;2023-02-10T06:33:44;51.43;;;28.07;;
19291;SDS011;9779;51.756;7.450;2023-02-10T06:36:10;50.43;;;26.40;;
19291;SDS011;9779;51.756;7.450;2023-02-10T06:38:36;49.50;;;26.87;;
19291;SDS011;9779;51.756;7.450;2023-02-10T06:41:02;50.80;;;26.77;;
19291;SDS011;9779;51.756;7.450;2023-02-10T06:43:29;48.50;;;26.97;;
19291;SDS011;9779;51.756;7.450;2023-02-10T06:45:54;43.70;;;25.10;;
19291;SDS011;9779;51.756;7.450;2023-02-10T06:48:20;55.13;;;28.40;;
19291;SDS011;9779;51.756;7.450;2023-02-10T06:50:46;51.87;;;27.90;;
19291;SDS011;9779;51.756;7.450;2023-02-10T06:53:11;52.97;;;28.33;;
19291;SDS011;9779;51.756;7.450;2023-02-10T06:55:37;45.87;;;27.00;;
19291;SDS011;9779;51.756;7.450;2023-02-10T06:58:02;51.17;;;27.17;;
19291;SDS011;9779;51.756;7.450;2023-02-10T07:00:28;53.60;;;28.00;;
19291;SDS011;9779;51.756;7.450;2023-02-10T07:02:56;53.80;;;28.37;;
19291;SDS011;9779;51.756;7.450;2023-02-10T07:05:22;46.73;;;28.00;;
19291;SDS011;9779;51.756;7.450;2023-02-10T07:07:47;50.10;;;28.03;;
19291;SDS011;9779;51.756;7.450;2023-02-10T07:10:13;53.07;;;27.57;;
19291;SDS011;9779;51.756;7.450;2023-02-10T07:12:38;50.37;;;26.57;;
19291;SDS011;9779;51.756;7.450;2023-02-10T07:15:04;59.17;;;27.57;;
19291;SDS011;9779;51.756;7.450;2023-02-10T07:17:30;50.70;;;27.03;;
19291;SDS011;9779;51.756;7.450;2023-02-10T07:19:57;50.53;;;25.40;;
19291;SDS011;9779;51.756;7.450;2023-02-10T07:22:22;47.37;;;26.17;;
19291;SDS011;9779;51.756;7.450;2023-02-10T07:24:48;49.90;;;28.40;;
19291;SDS011;9779;51.756;7.450;2023-02-10T07:27:13;62.60;;;29.40;;
19291;SDS011;9779;51.756;7.450;2023-02-10T07:29:39;54.87;;;28.47;;
19291;SDS011;9779;51.756;7.450;2023-02-10T07:32:04;58.93;;;28.90;;
19291;SDS011;9779;51.756;7.450;2023-02-10T07:34:30;57.43;;;30.70;;
19291;SDS011;9779;51.756;7.450;2023-02-10T07:36:59;61.90;;;30.80;;
19291;SDS011;9779;51.756;7.450;2023-02-10T07:39:24;57.93;;;31.47;;
19291;SDS011;9779;51.756;7.450;2023-02-10T07:41:50;59.17;;;28.37;;
19291;SDS011;9779;51.756;7.450;2023-02-10T07:44:16;58.50;;;29.70;;
19291;SDS011;9779;51.756;7.450;2023-02-10T07:46:42;58.33;;;29.50;;
19291;SDS011;9779;51.756;7.450;2023-02-10T07:49:08;69.50;;;28.93;;
19291;SDS011;9779;51.756;7.450;2023-02-10T07:51:34;62.53;;;31.40;;
19291;SDS011;9779;51.756;7.450;2023-02-10T07:53:59;58.80;;;30.67;;
19291;SDS011;9779;51.756;7.450;2023-02-10T07:56:25;62.87;;;31.13;;
19291;SDS011;9779;51.756;7.450;2023-02-10T07:58:50;60.43;;;30.03;;
19291;SDS011;9779;51.756;7.450;2023-02-10T08:01:16;55.20;;;29.23;;
19291;SDS011;9779;51.756;7.450;2023-02-10T08:03:41;59.93;;;28.83;;
19291;SDS011;9779;51.756;7.450;2023-02-10T08:06:07;52.87;;;28.77;;
19291;SDS011;9779;51.756;7.450;2023-02-10T08:08:33;51.93;;;29.47;;
19291;SDS011;9779;51.756;7.450;2023-02-10T08:10:59;51.43;;;28.50;;
19291;SDS011;9779;51.756;7.450;2023-02-10T08:13:28;55.80;;;29.37;;
19291;SDS011;9779;51.756;7.450;2023-02-10T08:15:54;53.40;;;27.73;;
19291;SDS011;9779;51.756;7.450;2023-02-10T08:18:20;52.40;;;29.17;;
19291;SDS011;9779;51.756;7.450;2023-02-10T08:20:46;62.07;;;28.93;;
19291;SDS011;9779;51.756;7.450;2023-02-10T08:23:16;45.97;;;27.33;;
19291;SDS011;9779;51.756;7.450;2023-02-10T08:25:42;51.07;;;28.40;;
19291;SDS011;9779;51.756;7.450;2023-02-10T08:28:08;58.27;;;29.63;;
19291;SDS011;9779;51.756;7.450;2023-02-10T08:30:34;58.33;;;30.80;;
19291;SDS011;9779;51.756;7.450;2023-02-10T08:33:00;54.93;;;28.73;;
19291;SDS011;9779;51.756;7.450;2023-02-10T08:35:28;62.23;;;30.37;;
19291;SDS011;9779;51.756;7.450;2023-02-10T08:37:54;50.57;;;29.03;;
19291;SDS011;9779;51.756;7.450;2023-02-10T08:40:20;53.30;;;29.87;;
19291;SDS011;9779;51.756;7.450;2023-02-10T08:42:45;54.63;;;28.13;;
19291;SDS011;9779;51.756;7.450;2023-02-10T08:45:11;54.80;;;29.43;;
19291;SDS011;9779;51.756;7.450;2023-02-10T08:47:36;52.87;;;30.00;;
19291;SDS011;9779;51.756;7.450;2023-02-10T08:50:02;63.03;;;32.23;;
19291;SDS011;9779;51.756;7.450;2023-02-10T08:52:28;35.17;;;21.33;;
19291;SDS011;9779;51.756;7.450;2023-02-10T08:54:54;40.27;;;23.63;;
19291;SDS011;9779;51.756;7.450;2023-02-10T08:57:21;56.27;;;30.83;;
19291;SDS011;9779;51.756;7.450;2023-02-10T08:59:47;62.13;;;31.60;;
19291;SDS011;9779;51.756;7.450;2023-02-10T09:02:13;56.40;;;29.90;;
19291;SDS011;9779;51.756;7.450;2023-02-10T09:04:39;49.90;;;29.67;;
19291;SDS011;9779;51.756;7.450;2023-02-10T09:07:05;53.17;;;30.40;;
19291;SDS011;9779;51.756;7.450;2023-02-10T09:09:31;54.80;;;29.90;;
19291;SDS011;9779;51.756;7.450;2023-02-10T09:11:56;54.77;;;29.83;;
19291;SDS011;9779;51.756;7.450;2023-02-10T09:14:22;62.23;;;31.77;;
19291;SDS011;9779;51.756;7.450;2023-02-10T09:16:48;57.70;;;30.30;;
19291;SDS011;9779;51.756;7.450;2023-02-10T09:19:15;53.90;;;31.27;;
19291;SDS011;9779;51.756;7.450;2023-02-10T09:21:40;59.20;;;30.93;;
19291;SDS011;9779;51.756;7.450;2023-02-10T09:24:06;50.40;;;29.47;;
19291;SDS011;9779;51.756;7.450;2023-02-10T09:26:32;54.30;;;29.97;;
19291;SDS011;9779;51.756;7.450;2023-02-10T09:28:57;55.50;;;30.50;;
19291;SDS011;9779;51.756;7.450;2023-02-10T09:31:23;54.97;;;29.50;;
19291;SDS011;9779;51.756;7.450;2023-02-10T09:33:49;63.73;;;30.37;;
19291;SDS011;9779;51.756;7.450;2023-02-10T09:36:16;56.03;;;28.83;;
19291;SDS011;9779;51.756;7.450;2023-02-10T09:38:42;59.13;;;30.27;;
19291;SDS011;9779;51.756;7.450;2023-02-10T09:41:14;54.57;;;30.47;;
19291;SDS011;9779;51.756;7.450;2023-02-10T09:46:51;55.00;;;29.10;;
19291;SDS011;9779;51.756;7.450;2023-02-10T09:49:51;51.80;;;30.63;;
19291;SDS011;9779;51.756;7.450;2023-02-10T09:57:54;48.87;;;28.23;;
19291;SDS011;9779;51.756;7.450;2023-02-10T10:00:26;54.90;;;28.57;;
19291;SDS011;9779;51.756;7.450;2023-02-10T10:02:57;53.87;;;29.93;;
19291;SDS011;9779;51.756;7.450;2023-02-10T10:08:17;46.90;;;28.80;;
19291;SDS011;9779;51.756;7.450;2023-02-10T10:10:55;52.17;;;28.60;;
19291;SDS011;9779;51.756;7.450;2023-02-10T10:13:25;53.23;;;29.87;;
19291;SDS011;9779;51.756;7.450;2023-02-10T10:18:43;49.40;;;27.03;;
19291;SDS011;9779;51.756;7.450;2023-02-10T10:21:26;48.13;;;28.87;;
19291;SDS011;9779;51.756;7.450;2023-02-10T10:24:22;53.00;;;29.73;;
19291;SDS011;9779;51.756;7.450;2023-02-10T10:30:04;47.23;;;28.93;;
19291;SDS011;9779;51.756;7.450;2023-02-10T10:32:45;52.53;;;28.53;;
19291;SDS011;9779;51.756;7.450;2023-02-10T10:35:25;44.40;;;25.87;;
19291;SDS011;9779;51.756;7.450;2023-02-10T10:37:57;46.90;;;27.83;;
19291;SDS011;9779;51.756;7.450;2023-02-10T10:40:25;58.20;;;27.10;;
19291;SDS011;9779;51.756;7.450;2023-02-10T10:42:58;52.33;;;27.33;;
19291;SDS011;9779;51.756;7.450;2023-02-10T10:45:29;47.50;;;27.20;;
19291;SDS011;9779;51.756;7.450;2023-02-10T10:48:05;46.23;;;25.33;;
19291;SDS011;9779;51.756;7.450;2023-02-10T10:50:40;52.17;;;28.57;;
19291;SDS011;9779;51.756;7.450;2023-02-10T10:53:14;48.90;;;27.10;;
19291;SDS011;9779;51.756;7.450;2023-02-10T10:56:01;47.23;;;27.23;;
19291;SDS011;9779;51.756;7.450;2023-02-10T10:58:31;46.37;;;26.23;;
19291;SDS011;9779;51.756;7.450;2023-02-10T11:01:02;44.07;;;26.70;;
19291;SDS011;9779;51.756;7.450;2023-02-10T11:03:28;45.37;;;26.70;;
19291;SDS011;9779;51.756;7.450;2023-02-10T11:06:16;45.97;;;26.23;;
19291;SDS011;9779;51.756;7.450;2023-02-10T11:08:52;50.47;;;25.70;;
19291;SDS011;9779;51.756;7.450;2023-02-10T11:11:31;49.97;;;26.13;;
19291;SDS011;9779;51.756;7.450;2023-02-10T11:13:58;47.07;;;26.20;;
19291;SDS011;9779;51.756;7.450;2023-02-10T11:16:25;49.80;;;26.20;;
19291;SDS011;9779;51.756;7.450;2023-02-10T11:18:51;43.20;;;26.97;;
19291;SDS011;9779;51.756;7.450;2023-02-10T11:21:16;54.13;;;26.93;;
19291;SDS011;9779;51.756;7.450;2023-02-10T11:23:50;44.57;;;26.63;;
19291;SDS011;9779;51.756;7.450;2023-02-10T11:26:18;44.13;;;26.80;;
19291;SDS011;9779;51.756;7.450;2023-02-10T11:28:46;47.70;;;26.90;;
19291;SDS011;9779;51.756;7.450;2023-02-10T11:31:27;41.13;;;26.07;;
19291;SDS011;9779;51.756;7.450;2023-02-10T11:36:43;45.17;;;26.47;;
19291;SDS011;9779;51.756;7.450;2023-02-10T11:39:20;48.40;;;26.83;;
19291;SDS011;9779;51.756;7.450;2023-02-10T11:41:49;49.97;;;28.40;;
19291;SDS011;9779;51.756;7.450;2023-02-10T11:44:21;47.53;;;27.87;;
19291;SDS011;9779;51.756;7.450;2023-02-10T11:46:53;49.83;;;28.00;;
19291;SDS011;9779;51.756;7.450;2023-02-10T11:49:21;50.30;;;30.03;;
19291;SDS011;9779;51.756;7.450;2023-02-10T11:51:55;62.30;;;31.90;;
19291;SDS011;9779;51.756;7.450;2023-02-10T11:54:22;56.33;;;31.27;;
19291;SDS011;9779;51.756;7.450;2023-02-10T11:57:04;52.57;;;29.27;;
19291;SDS011;9779;51.756;7.450;2023-02-10T12:11:41;53.80;;;29.73;;
19291;SDS011;9779;51.756;7.450;2023-02-10T12:14:23;51.23;;;28.87;;
19291;SDS011;9779;51.756;7.450;2023-02-10T12:17:01;45.63;;;29.10;;
19291;SDS011;9779;51.756;7.450;2023-02-10T12:25:35;51.00;;;27.07;;
19291;SDS011;9779;51.756;7.450;2023-02-10T12:31:28;41.37;;;24.70;;
19291;SDS011;9779;51.756;7.450;2023-02-10T12:36:59;50.17;;;25.80;;
19291;SDS011;9779;51.756;7.450;2023-02-10T12:39:34;46.83;;;26.13;;
19291;SDS011;9779;51.756;7.450;2023-02-10T12:42:30;49.33;;;25.97;;
19291;SDS011;9779;51.756;7.450;2023-02-10T12:51:14;50.80;;;26.10;;
19291;SDS011;9779;51.756;7.450;2023-02-10T12:53:47;48.07;;;25.77;;
19291;SDS011;9779;51.756;7.450;2023-02-10T12:59:04;45.03;;;25.43;;
19291;SDS011;9779;51.756;7.450;2023-02-10T13:01:39;41.10;;;25.60;;
19291;SDS011;9779;51.756;7.450;2023-02-10T13:04:52;47.73;;;24.93;;
19291;SDS011;9779;51.756;7.450;2023-02-10T13:10:35;50.17;;;25.80;;
19291;SDS011;9779;51.756;7.450;2023-02-10T13:13:05;38.27;;;24.87;;
19291;SDS011;9779;51.756;7.450;2023-02-10T13:15:41;49.43;;;24.47;;
19291;SDS011;9779;51.756;7.450;2023-02-10T13:18:18;46.67;;;26.73;;
19291;SDS011;9779;51.756;7.450;2023-02-10T13:23:37;40.83;;;23.87;;
19291;SDS011;9779;51.756;7.450;2023-02-10T13:26:24;48.80;;;25.27;;
19291;SDS011;9779;51.756;7.450;2023-02-10T13:29:07;44.87;;;25.17;;
19291;SDS011;9779;51.756;7.450;2023-02-10T13:34:29;47.37;;;24.37;;
19291;SDS011;9779;51.756;7.450;2023-02-10T13:37:05;51.97;;;23.03;;
19291;SDS011;9779;51.756;7.450;2023-02-10T13:39:39;39.50;;;23.57;;
19291;SDS011;9779;51.756;7.450;2023-02-10T13:42:17;43.90;;;22.50;;
19291;SDS011;9779;51.756;7.450;2023-02-10T13:47:46;37.67;;;19.60;;
19291;SDS011;9779;51.756;7.450;2023-02-10T13:50:20;29.80;;;18.57;;
19291;SDS011;9779;51.756;7.450;2023-02-10T13:52:53;37.00;;;20.93;;
19291;SDS011;9779;51.756;7.450;2023-02-10T13:55:29;30.97;;;19.60;;
19291;SDS011;9779;51.756;7.450;2023-02-10T14:00:46;41.03;;;20.03;;
19291;SDS011;9779;51.756;7.450;2023-02-10T14:05:59;40.47;;;19.57;;
19291;SDS011;9779;51.756;7.450;2023-02-10T14:13:39;32.67;;;17.90;;
19291;SDS011;9779;51.756;7.450;2023-02-10T14:18:39;31.17;;;16.50;;
19291;SDS011;9779;51.756;7.450;2023-02-10T14:23:37;28.90;;;15.10;;
19291;SDS011;9779;51.756;7.450;2023-02-10T14:26:07;25.20;;;14.27;;
19291;SDS011;9779;51.756;7.450;2023-02-10T14:28:40;28.93;;;15.30;;
19291;SDS011;9779;51.756;7.450;2023-02-10T14:31:22;25.73;;;14.87;;
19291;SDS011;9779;51.756;7.450;2023-02-10T14:34:01;34.33;;;15.10;;
19291;SDS011;9779;51.756;7.450;2023-02-10T14:36:28;38.17;;;15.47;;
19291;SDS011;9779;51.756;7.450;2023-02-10T14:38:55;24.13;;;14.53;;
19291;SDS011;9779;51.756;7.450;2023-02-10T14:41:29;24.50;;;13.77;;
19291;SDS011;9779;51.756;7.450;2023-02-10T14:43:56;28.60;;;14.77;;
19291;SDS011;9779;51.756;7.450;2023-02-10T14:46:23;25.70;;;12.80;;
19291;SDS011;9779;51.756;7.450;2023-02-10T14:49:08;23.87;;;10.77;;
19291;SDS011;9779;51.756;7.450;2023-02-10T14:51:40;16.43;;;10.57;;
19291;SDS011;9779;51.756;7.450;2023-02-10T14:54:21;12.40;;;10.53;;
19291;SDS011;9779;51.756;7.450;2023-02-10T14:56:52;18.30;;;9.97;;
19291;SDS011;9779;51.756;7.450;2023-02-10T14:59:26;18.67;;;9.73;;
19291;SDS011;9779;51.756;7.450;2023-02-10T15:01:53;17.83;;;8.90;;
19291;SDS011;9779;51.756;7.450;2023-02-10T15:04:20;12.07;;;8.63;;
19291;SDS011;9779;51.756;7.450;2023-02-10T15:06:50;20.83;;;9.17;;
19291;SDS011;9779;51.756;7.450;2023-02-10T15:09:19;21.93;;;9.20;;
19291;SDS011;9779;51.756;7.450;2023-02-10T15:11:50;15.40;;;8.40;;
19291;SDS011;9779;51.756;7.450;2023-02-10T15:17:42;9.10;;;7.57;;
19291;SDS011;9779;51.756;7.450;2023-02-10T15:22:41;16.17;;;9.13;;
19291;SDS011;9779;51.756;7.450;2023-02-10T15:27:58;23.63;;;10.20;;
19291;SDS011;9779;51.756;7.450;2023-02-10T15:30:31;23.47;;;9.87;;
19291;SDS011;9779;51.756;7.450;2023-02-10T15:36:17;17.83;;;10.43;;
19291;SDS011;9779;51.756;7.450;2023-02-10T15:41:45;18.30;;;11.20;;
19291;SDS011;9779;51.756;7.450;2023-02-10T15:44:30;21.77;;;11.03;;
19291;SDS011;9779;51.756;7.450;2023-02-10T15:49:44;16.50;;;11.60;;
19291;SDS011;9779;51.756;7.450;2023-02-10T15:54:49;26.70;;;13.13;;
19291;SDS011;9779;51.756;7.450;2023-02-10T15:57:16;21.47;;;12.43;;
19291;SDS011;9779;51.756;7.450;2023-02-10T15:59:42;26.40;;;13.60;;
19291;SDS011;9779;51.756;7.450;2023-02-10T16:02:10;22.30;;;11.60;;
19291;SDS011;9779;51.756;7.450;2023-02-10T16:04:38;29.63;;;11.77;;
19291;SDS011;9779;51.756;7.450;2023-02-10T16:07:04;30.87;;;13.70;;
19291;SDS011;9779;51.756;7.450;2023-02-10T16:09:31;25.77;;;12.87;;
19291;SDS011;9779;51.756;7.450;2023-02-10T16:11:58;27.27;;;13.33;;
19291;SDS011;9779;51.756;7.450;2023-02-10T16:14:25;25.00;;;13.57;;
19291;SDS011;9779;51.756;7.450;2023-02-10T16:16:52;31.67;;;13.07;;
19291;SDS011;9779;51.756;7.450;2023-02-10T16:19:20;28.53;;;16.20;;
19291;SDS011;9779;51.756;7.450;2023-02-10T16:21:47;23.23;;;14.77;;
19291;SDS011;9779;51.756;7.450;2023-02-10T16:24:14;31.07;;;16.43;;
19291;SDS011;9779;51.756;7.450;2023-02-10T16:26:41;29.77;;;16.40;;
19291;SDS011;9779;51.756;7.450;2023-02-10T16:29:20;26.50;;;17.23;;
19291;SDS011;9779;51.756;7.450;2023-02-10T16:31:47;21.47;;;16.63;;
19291;SDS011;9779;51.756;7.450;2023-02-10T16:34:13;41.17;;;18.77;;
19291;SDS011;9779;51.756;7.450;2023-02-10T16:36:39;33.43;;;18.97;;
19291;SDS011;9779;51.756;7.450;2023-02-10T16:39:05;31.27;;;18.43;;
19291;SDS011;9779;51.756;7.450;2023-02-10T16:41:35;31.67;;;18.13;;
19291;SDS011;9779;51.756;7.450;2023-02-10T16:44:01;32.40;;;17.63;;
19291;SDS011;9779;51.756;7.450;2023-02-10T16:46:26;38.30;;;18.87;;
19291;SDS011;9779;51.756;7.450;2023-02-10T16:48:52;38.83;;;19.07;;
19291;SDS011;9779;51.756;7.450;2023-02-10T16:51:17;30.80;;;19.00;;
19291;SDS011;9779;51.756;7.450;2023-02-10T16:53:43;30.50;;;18.60;;
19291;SDS011;9779;51.756;7.450;2023-02-10T16:56:14;36.63;;;21.20;;
19291;SDS011;9779;51.756;7.450;2023-02-10T16:58:41;39.83;;;24.93;;